createdAt,value
2019-03-16T00:00:25.833Z,0.4
2019-03-16T00:10:27.963Z,0.6
2019-03-16T00:20:28.950Z,0.3
2019-03-16T00:30:28.838Z,0.4
2019-03-16T00:40:28.577Z,0.3
2019-03-16T00:50:27.982Z,0.5
2019-03-16T01:00:27.584Z,0.2
2019-03-16T01:10:26.962Z,0.7
2019-03-16T01:20:26.518Z,0.4
2019-03-16T01:30:26.124Z,0.3
2019-03-16T01:40:25.628Z,0.1
2019-03-16T01:50:25.166Z,0.6
2019-03-16T02:00:24.627Z,0.2
2019-03-16T02:10:26.350Z,0.2
2019-03-16T02:20:40.222Z,1.2
2019-03-16T02:30:42.814Z,0.1
2019-03-16T02:40:44.480Z,0.2
2019-03-16T02:50:44.152Z,0.7
2019-03-16T03:00:44.025Z,0.5
2019-03-16T03:11:00.791Z,0.4
2019-03-16T03:21:00.558Z,0.3
2019-03-16T03:31:00.763Z,0.3
2019-03-16T03:41:34.013Z,0.3
2019-03-16T03:51:34.027Z,0.3
2019-03-16T04:01:34.407Z,0.4
2019-03-16T04:11:51.494Z,0.2
2019-03-16T04:21:51.251Z,0.3
2019-03-16T04:31:50.869Z,0.5
2019-03-16T04:42:00.377Z,0.7
2019-03-16T04:52:02.093Z,0.6
2019-03-16T05:02:01.487Z,0.2
2019-03-16T05:12:13.421Z,0.3
2019-03-16T05:22:12.927Z,0.9
2019-03-16T05:32:12.425Z,0.9
2019-03-16T05:42:27.012Z,0.1
2019-03-16T05:52:28.677Z,2.8
2019-03-16T06:02:28.053Z,0.3
2019-03-16T06:12:41.832Z,0.7
2019-03-16T06:22:43.988Z,0.5
2019-03-16T06:32:43.452Z,0.5
2019-03-16T06:42:59.553Z,0.4
2019-03-16T06:52:58.983Z,0.5
2019-03-16T07:02:58.715Z,1
2019-03-16T07:13:09.355Z,1.1
2019-03-16T07:23:09.053Z,0.6
2019-03-16T07:33:08.764Z,0.7
2019-03-16T07:43:08.307Z,0.6
2019-03-16T07:53:09.884Z,0.8
2019-03-16T08:03:12.759Z,0.5
2019-03-16T08:13:17.032Z,0.6
2019-03-16T08:23:16.698Z,0.6
2019-03-16T08:33:27.839Z,0.7
2019-03-16T08:43:31.258Z,0.8
2019-03-16T08:53:33.414Z,0.6
2019-03-16T09:03:44.176Z,0.2
2019-03-16T09:13:44.168Z,0.4
2019-03-16T09:23:44.084Z,0.2
2019-03-16T09:33:51.532Z,0.7
2019-03-16T09:43:51.492Z,0.6
2019-03-16T09:53:51.148Z,1.1
2019-03-16T10:04:02.237Z,0.7
2019-03-16T10:14:01.690Z,1.1
2019-03-16T10:24:01.533Z,0.8
2019-03-16T10:34:14.781Z,0.3
2019-03-16T10:44:14.531Z,0.4
2019-03-16T10:54:14.341Z,0.7
2019-03-16T11:04:27.522Z,3.6
2019-03-16T11:14:27.052Z,0.7
2019-03-16T11:24:26.493Z,1.4
2019-03-16T11:34:39.549Z,0.6
2019-03-16T11:44:40.313Z,1.7
2019-03-16T11:54:39.863Z,1.5
2019-03-16T12:04:52.931Z,0.9
2019-03-16T12:14:53.248Z,1.1
2019-03-16T12:24:53.014Z,0.6
2019-03-16T12:35:06.072Z,1.4
2019-03-16T12:45:06.557Z,0.6
2019-03-16T12:55:09.963Z,1.8
2019-03-16T13:05:21.438Z,2.7
2019-03-16T13:15:21.524Z,4
2019-03-16T13:25:21.538Z,1.6
2019-03-16T13:35:30.808Z,1.8
2019-03-16T13:45:32.130Z,1.4
2019-03-16T13:55:37.998Z,0.6
2019-03-16T14:05:47.059Z,0.8
2019-03-16T14:15:48.166Z,0.9
2019-03-16T14:25:48.166Z,1
2019-03-16T14:36:16.995Z,1.1
2019-03-16T14:46:20.427Z,1.2
2019-03-16T14:56:20.182Z,1.1
2019-03-16T15:06:20.082Z,1.1
2019-03-16T15:16:20.799Z,1.2
2019-03-16T15:26:24.118Z,1
2019-03-16T15:36:28.811Z,2
2019-03-16T15:46:28.570Z,0.9
2019-03-16T15:56:29.295Z,1.2
2019-03-16T16:06:40.331Z,1.2
2019-03-16T16:16:41.484Z,1.3
2019-03-16T16:26:41.405Z,2
2019-03-16T16:36:47.442Z,7.6
2019-03-16T16:46:47.283Z,3.9
2019-03-16T16:56:47.081Z,2.5
2019-03-16T17:07:00.395Z,5.6
2019-03-16T17:16:59.955Z,5.2
2019-03-16T17:27:08.351Z,1.6
2019-03-16T17:37:16.394Z,1.6
2019-03-16T17:47:17.151Z,3.9
2019-03-16T17:57:18.263Z,3.7
2019-03-16T18:07:26.339Z,4.2
2019-03-16T18:17:25.996Z,8.9
2019-03-16T18:27:25.639Z,6.3
2019-03-16T18:37:42.377Z,5.1
2019-03-16T18:47:41.989Z,5.6
2019-03-16T18:57:41.743Z,4.7
2019-03-16T19:07:51.695Z,4.1
2019-03-16T19:17:59.492Z,3.4
2019-03-16T19:28:01.219Z,7.5
2019-03-16T19:38:08.272Z,3.6
2019-03-16T19:48:07.832Z,3.1
2019-03-16T19:58:07.481Z,2.2
2019-03-16T20:08:22.058Z,2.8
2019-03-16T20:18:24.117Z,5.7
2019-03-16T20:28:23.587Z,4.7
2019-03-16T20:38:35.190Z,4.8
2019-03-16T20:48:36.413Z,11
2019-03-16T20:58:36.142Z,3.3
2019-03-16T21:09:03.642Z,2.4
2019-03-16T21:19:03.537Z,2
2019-03-16T21:29:26.555Z,2.5
2019-03-16T21:39:26.120Z,2.2
2019-03-16T21:49:31.310Z,3.7
2019-03-16T21:59:33.952Z,2.2
2019-03-16T22:09:33.450Z,1.9
2019-03-16T22:19:35.813Z,2
2019-03-16T22:29:36.942Z,1.7
2019-03-16T22:39:39.776Z,1.5
2019-03-16T22:49:39.377Z,3.3
2019-03-16T22:59:38.824Z,1.3
2019-03-16T23:09:38.285Z,2.5
2019-03-16T23:19:37.856Z,2
2019-03-16T23:29:37.463Z,3.2
2019-03-16T23:39:50.015Z,1.5
2019-03-16T23:49:49.522Z,1.5
2019-03-16T23:59:48.979Z,1.6
